createdAt,value
2023-11-20T00:01:47.875Z,9.55
2023-11-20T00:06:47.890Z,9.52
2023-11-20T00:11:47.864Z,9.5
2023-11-20T00:16:47.908Z,9.5
2023-11-20T00:21:47.952Z,9.5
2023-11-20T00:26:48.118Z,9.49
2023-11-20T00:31:47.914Z,9.48
2023-11-20T00:36:48.056Z,9.46
2023-11-20T00:41:47.848Z,9.44
2023-11-20T00:46:47.914Z,9.43
2023-11-20T00:51:47.836Z,9.42
2023-11-20T00:56:47.857Z,9.44
2023-11-20T01:01:48.073Z,9.41
2023-11-20T01:06:48.681Z,9.41
2023-11-20T01:11:49.662Z,9.39
2023-11-20T01:16:47.871Z,9.38
2023-11-20T01:21:47.917Z,9.38
2023-11-20T01:26:47.852Z,9.36
2023-11-20T01:31:47.919Z,9.35
2023-11-20T01:36:48.112Z,9.31
2023-11-20T01:41:47.866Z,9.29
2023-11-20T01:46:47.959Z,9.3
2023-11-20T01:51:48.027Z,9.28
2023-11-20T01:56:48.291Z,9.28
2023-11-20T02:01:48.149Z,9.25
2023-11-20T02:06:48.151Z,9.24
2023-11-20T02:11:48.341Z,9.22
2023-11-20T02:16:47.978Z,9.22
2023-11-20T02:21:48.447Z,9.21
2023-11-20T02:27:05.163Z,9.2
2023-11-20T02:31:48.015Z,9.15
2023-11-20T02:36:47.994Z,9.13
2023-11-20T02:41:47.970Z,9.11
2023-11-20T02:46:48.153Z,9.1
2023-11-20T02:51:47.955Z,9.08
2023-11-20T02:56:48.188Z,9.06
2023-11-20T03:01:49.894Z,9.05
2023-11-20T03:06:47.985Z,9.02
2023-11-20T03:11:48.086Z,9.01
2023-11-20T03:16:48.866Z,9
2023-11-20T03:21:48.547Z,8.97
2023-11-20T03:26:48.008Z,8.98
2023-11-20T03:31:48.130Z,8.94
2023-11-20T03:36:48.022Z,8.92
2023-11-20T03:41:48.089Z,8.91
2023-11-20T03:46:48.092Z,8.86
2023-11-20T03:51:48.101Z,8.85
2023-11-20T03:56:48.076Z,8.83
2023-11-20T04:01:48.107Z,8.82
2023-11-20T04:06:48.043Z,8.81
2023-11-20T04:11:48.125Z,8.8
2023-11-20T04:16:53.034Z,8.78
2023-11-20T04:21:48.973Z,8.77
2023-11-20T04:26:48.714Z,8.76
2023-11-20T04:31:48.673Z,8.77
2023-11-20T04:36:48.465Z,8.77
2023-11-20T04:41:48.377Z,8.76
2023-11-20T04:46:50.575Z,8.75
2023-11-20T04:51:49.605Z,8.74
2023-11-20T04:56:49.198Z,8.73
2023-11-20T05:01:48.605Z,8.71
2023-11-20T05:06:48.674Z,8.69
2023-11-20T05:11:49.974Z,8.68
2023-11-20T05:16:48.401Z,8.64
2023-11-20T05:21:48.958Z,8.62
2023-11-20T05:26:48.235Z,8.62
2023-11-20T05:31:48.360Z,8.6
2023-11-20T05:36:48.640Z,8.6
2023-11-20T05:41:48.636Z,8.59
2023-11-20T05:46:48.174Z,8.57
2023-11-20T05:51:48.463Z,8.59
2023-11-20T05:56:48.257Z,8.59
2023-11-20T06:01:48.678Z,8.6
2023-11-20T06:06:48.280Z,8.62
2023-11-20T06:11:50.461Z,8.62
2023-11-20T06:16:48.384Z,8.61
2023-11-20T06:21:53.160Z,8.59
2023-11-20T06:26:48.663Z,8.58
2023-11-20T06:31:48.375Z,8.58
2023-11-20T06:36:48.602Z,8.55
2023-11-20T06:41:48.546Z,8.54
2023-11-20T06:46:48.290Z,8.6
2023-11-20T06:51:49.249Z,8.6
2023-11-20T06:56:54.683Z,8.62
2023-11-20T07:01:51.805Z,8.6
2023-11-20T07:06:50.381Z,8.61
2023-11-20T07:11:48.572Z,8.63
2023-11-20T07:16:49.825Z,8.63
2023-11-20T07:21:48.893Z,8.61
2023-11-20T07:26:48.244Z,8.63
2023-11-20T07:31:48.465Z,8.59
2023-11-20T07:36:48.373Z,8.48
2023-11-20T07:41:48.243Z,8.46
2023-11-20T07:46:52.115Z,8.42
2023-11-20T07:51:48.500Z,8.46
2023-11-20T07:56:48.744Z,8.46
2023-11-20T08:01:48.359Z,8.49
2023-11-20T08:06:49.071Z,8.63
2023-11-20T08:11:48.761Z,8.75
2023-11-20T08:16:48.654Z,8.82
2023-11-20T08:21:48.306Z,8.83
2023-11-20T08:26:48.714Z,8.84
2023-11-20T08:31:48.397Z,8.85
2023-11-20T08:36:48.838Z,8.8
2023-11-20T08:41:48.282Z,8.91
2023-11-20T08:46:50.884Z,8.92
2023-11-20T08:51:55.915Z,9.23
2023-11-20T08:56:52.560Z,9.3
2023-11-20T09:01:49.204Z,9.67
2023-11-20T09:06:48.534Z,9.82
2023-11-20T09:11:50.991Z,9.57
2023-11-20T09:16:48.606Z,9.66
2023-11-20T09:21:48.445Z,10.16
2023-11-20T09:26:49.993Z,10.08
2023-11-20T09:31:49.040Z,9.94
2023-11-20T09:36:48.667Z,9.86
2023-11-20T09:41:48.869Z,9.77
2023-11-20T09:46:49.895Z,9.69
2023-11-20T09:51:50.045Z,9.64
2023-11-20T09:56:48.426Z,9.57
2023-11-20T10:01:49.226Z,9.35
2023-11-20T10:06:48.627Z,9.51
2023-11-20T10:11:52.517Z,9.68
2023-11-20T10:16:49.092Z,9.79
2023-11-20T10:21:51.402Z,10.02
2023-11-20T10:26:51.324Z,9.8
2023-11-20T10:31:52.180Z,9.78
2023-11-20T10:36:58.495Z,9.89
2023-11-20T10:41:48.507Z,9.89
2023-11-20T10:46:49.700Z,9.86
2023-11-20T10:51:52.886Z,10.76
2023-11-20T10:56:49.254Z,12.38
2023-11-20T11:01:48.665Z,13.19
2023-11-20T11:06:50.911Z,12.75
2023-11-20T11:11:50.684Z,12.13
2023-11-20T11:16:51.925Z,12.2
2023-11-20T11:21:57.391Z,11.87
2023-11-20T11:26:53.931Z,12.5
2023-11-20T11:31:58.301Z,14.53
2023-11-20T11:36:55.597Z,14.8
2023-11-20T11:42:06.047Z,12.57
2023-11-20T11:46:53.536Z,11.31
2023-11-20T11:51:49.252Z,10.89
2023-11-20T11:56:57.809Z,10.2
2023-11-20T12:01:54.243Z,10.42
2023-11-20T12:06:48.682Z,10.5
2023-11-20T12:11:58.046Z,10.45
2023-11-20T12:16:50.472Z,11.04
2023-11-20T12:21:50.386Z,10.43
2023-11-20T12:26:48.767Z,10.06
2023-11-20T12:31:49.421Z,9.94
2023-11-20T12:36:48.990Z,10.18
2023-11-20T12:41:50.447Z,10.08
2023-11-20T12:46:48.913Z,9.93
2023-11-20T12:51:48.674Z,9.89
2023-11-20T12:56:49.949Z,9.93
2023-11-20T13:01:48.550Z,9.91
2023-11-20T13:06:48.803Z,9.75
2023-11-20T13:11:48.692Z,9.71
2023-11-20T13:16:49.031Z,9.5
2023-11-20T13:21:50.447Z,9.49
2023-11-20T13:26:52.912Z,9.3
2023-11-20T13:31:50.359Z,9.2
2023-11-20T13:36:48.668Z,9.27
2023-11-20T13:41:48.953Z,9.43
2023-11-20T13:46:50.724Z,9.47
2023-11-20T13:51:48.559Z,9.43
2023-11-20T13:56:48.627Z,9.36
2023-11-20T14:01:49.005Z,9.3
2023-11-20T14:06:48.722Z,9.22
2023-11-20T14:11:48.657Z,9.08
2023-11-20T14:16:48.692Z,9.15
2023-11-20T14:21:48.654Z,9.53
2023-11-20T14:26:48.638Z,9.51
2023-11-20T14:31:49.736Z,9.12
2023-11-20T14:36:48.720Z,8.78
2023-11-20T14:41:48.713Z,8.69
2023-11-20T14:46:48.771Z,8.3
2023-11-20T14:51:48.856Z,8
2023-11-20T14:56:48.706Z,7.79
2023-11-20T15:01:48.700Z,7.54
2023-11-20T15:06:48.681Z,7.29
2023-11-20T15:11:49.992Z,7.08
2023-11-20T15:16:48.676Z,6.81
2023-11-20T15:21:50.040Z,6.51
2023-11-20T15:26:50.288Z,6.21
2023-11-20T15:31:48.882Z,6.13
2023-11-20T15:36:48.645Z,5.86
2023-11-20T15:41:49.252Z,5.57
2023-11-20T15:46:52.027Z,5.26
2023-11-20T15:51:48.668Z,4.97
2023-11-20T15:56:53.376Z,4.82
2023-11-20T16:01:49.432Z,4.73
2023-11-20T16:06:48.738Z,4.63
2023-11-20T16:11:48.962Z,4.38
2023-11-20T16:16:52.729Z,4.33
2023-11-20T16:21:49.553Z,4.21
2023-11-20T16:26:48.998Z,4.13
2023-11-20T16:31:48.833Z,4.12
2023-11-20T16:36:49.015Z,4.03
2023-11-20T16:41:48.720Z,3.85
2023-11-20T16:46:48.777Z,3.74
2023-11-20T16:51:48.796Z,3.63
2023-11-20T16:56:49.354Z,3.6
2023-11-20T17:01:49.989Z,3.55
2023-11-20T17:06:48.690Z,3.51
2023-11-20T17:11:50.573Z,3.51
2023-11-20T17:16:49.044Z,3.45
2023-11-20T17:21:48.785Z,3.4
2023-11-20T17:26:49.028Z,3.32
2023-11-20T17:31:48.946Z,3.3
2023-11-20T17:36:49.165Z,3.36
2023-11-20T17:41:48.684Z,3.24
2023-11-20T17:46:50.083Z,3.22
2023-11-20T17:51:49.140Z,3.2
2023-11-20T17:56:50.710Z,3.28
2023-11-20T18:01:49.432Z,3.25
2023-11-20T18:06:51.544Z,3.34
2023-11-20T18:11:48.761Z,3.33
2023-11-20T18:16:48.797Z,3.28
2023-11-20T18:21:53.733Z,3.33
2023-11-20T18:26:50.063Z,3.42
2023-11-20T18:31:50.196Z,3.41
2023-11-20T18:36:48.693Z,3.51
2023-11-20T18:41:49.605Z,3.59
2023-11-20T18:46:48.936Z,3.59
2023-11-20T18:51:48.683Z,3.62
2023-11-20T18:56:48.741Z,3.66
2023-11-20T19:01:52.089Z,3.5
2023-11-20T19:06:48.664Z,3.3
2023-11-20T19:11:49.418Z,3.12
2023-11-20T19:16:48.793Z,3.08
2023-11-20T19:21:48.756Z,3.03
2023-11-20T19:26:48.746Z,3.13
2023-11-20T19:31:49.335Z,3.28
2023-11-20T19:36:48.772Z,3.44
2023-11-20T19:41:49.616Z,3.62
2023-11-20T19:46:48.787Z,3.77
2023-11-20T19:51:48.729Z,3.88
2023-11-20T19:56:49.193Z,3.82
2023-11-20T20:01:50.348Z,3.65
2023-11-20T20:06:49.295Z,3.56
2023-11-20T20:11:50.196Z,3.46
2023-11-20T20:16:49.505Z,3.47
2023-11-20T20:21:49.046Z,3.68
2023-11-20T20:26:48.744Z,3.83
2023-11-20T20:31:48.842Z,4
2023-11-20T20:36:48.757Z,4.17
2023-11-20T20:41:49.051Z,4.26
2023-11-20T20:46:49.059Z,4.35
2023-11-20T20:51:49.706Z,4.39
2023-11-20T20:56:49.285Z,4.41
2023-11-20T21:01:49.334Z,4.4
2023-11-20T21:06:48.841Z,4.4
2023-11-20T21:11:48.878Z,4.4
2023-11-20T21:16:49.449Z,4.35
2023-11-20T21:21:49.233Z,4.33
2023-11-20T21:26:48.930Z,4.32
2023-11-20T21:31:52.480Z,4.34
2023-11-20T21:36:49.754Z,4.4
2023-11-20T21:41:49.337Z,4.52
2023-11-20T21:46:49.678Z,4.56
2023-11-20T21:51:48.864Z,4.4
2023-11-20T21:56:48.912Z,4.24
2023-11-20T22:01:49.280Z,4
2023-11-20T22:06:48.861Z,4.01
2023-11-20T22:11:50.018Z,4.24
2023-11-20T22:16:48.936Z,4.46
2023-11-20T22:21:49.416Z,4.55
2023-11-20T22:26:48.924Z,4.7
2023-11-20T22:31:49.041Z,4.73
2023-11-20T22:36:48.867Z,4.7
2023-11-20T22:41:49.183Z,4.39
2023-11-20T22:46:48.991Z,4.1
2023-11-20T22:51:48.868Z,4.08
2023-11-20T22:56:48.944Z,4.2
2023-11-20T23:01:50.763Z,4.33
2023-11-20T23:06:48.930Z,4.43
2023-11-20T23:11:48.921Z,4.4
2023-11-20T23:16:48.949Z,4.31
2023-11-20T23:21:48.960Z,4.26
2023-11-20T23:26:48.889Z,4.25
2023-11-20T23:31:48.989Z,4.21
2023-11-20T23:36:49.004Z,4.29
2023-11-20T23:41:49.831Z,4.36
2023-11-20T23:46:49.553Z,4.36
2023-11-20T23:51:48.926Z,4.45
2023-11-20T23:56:49.260Z,4.46
